SANE/SDE METAR and TAF weather

Enter ICAO airport designator
Station Type Date Time Source
SANE METAR 2021/06/25 11:30 UTC NOAA

SANE 251130Z 00000KT 0800 MIFG M00/M01 Q1014


Station Type Date Time Source
SANE Decoded METAR 2021/06/25 11:30 UTC NOAA

Santiago Del Estero Aero., Argentina (SANE) 27-46S 064-18W 199M
Jun 25, 2021 - 07:30 AM EDT / 2021.06.25 1130 UTC
Wind: Calm:0
Visibility: less than 1 mile:0
Weather: shallow fog
Temperature: 32 F (0 C)
Dew Point: 30 F (-1 C)
Relative Humidity: 92%
Pressure (altimeter): 29.94 in. Hg (1014 hPa)
ob: SANE 251130Z 00000KT 0800 MIFG M00/M01 Q1014
cycle: 11

Station Type Date Time Source
SANE TAF 2021/08/02 18:21 UTC NOAA

TAF TAF SANE 021700Z 0218/0318 05010KT CAVOK TX24/0318Z TN01/0310Z
BECMG 0222/0301 02005KT

Example: see airport list